createdAt,value
2023-03-16T01:20:01.076Z,35.70
2023-03-16T01:22:28.538Z,32.17
2023-03-16T01:24:55.153Z,36.83
2023-03-16T01:27:21.693Z,35.83
2023-03-16T01:29:48.489Z,39.60
2023-03-16T01:32:15.026Z,36.87
2023-03-16T01:34:41.527Z,39.67
2023-03-16T01:37:08.057Z,36.93
2023-03-16T01:39:34.670Z,34.63
2023-03-16T01:42:01.196Z,35.20
2023-03-16T01:44:30.596Z,36.07
2023-03-16T01:46:57.455Z,34.83
2023-03-16T01:49:27.324Z,47.37
2023-03-16T01:52:07.098Z,40.30
2023-03-16T01:54:36.575Z,37.37
2023-03-16T01:57:07.355Z,40.50
2023-03-16T01:59:59.261Z,34.97
2023-03-16T02:02:27.601Z,36.50
2023-03-16T02:05:04.813Z,38.13
2023-03-16T02:07:35.028Z,37.10
2023-03-16T02:10:02.553Z,33.23
2023-03-16T02:12:29.951Z,40.27
2023-03-16T02:14:56.509Z,39.37
2023-03-16T02:17:26.536Z,34.60
2023-03-16T02:20:33.290Z,36.50
2023-03-16T02:23:00.258Z,32.57
2023-03-16T02:25:35.368Z,38.90
2023-03-16T02:28:13.425Z,34.80
2023-03-16T02:30:39.950Z,30.33
2023-03-16T02:33:06.933Z,39.57
2023-03-16T02:35:33.800Z,34.60
2023-03-16T02:38:00.437Z,32.63
2023-03-16T02:40:30.297Z,31.23
2023-03-16T02:43:10.782Z,34.27
2023-03-16T02:45:45.394Z,39.50
2023-03-16T02:48:22.279Z,41.10
2023-03-16T02:50:51.733Z,34.73
2023-03-16T02:53:18.478Z,43.17
2023-03-16T02:55:45.822Z,42.27
2023-03-16T02:58:13.728Z,39.60
2023-03-16T03:00:40.659Z,47.50
2023-03-16T03:03:10.048Z,51.30
2023-03-16T03:05:37.296Z,39.73
2023-03-16T03:08:04.834Z,48.20
2023-03-16T03:10:31.368Z,41.93
2023-03-16T03:12:58.116Z,49.10
2023-03-16T03:15:24.866Z,40.47
2023-03-16T03:17:51.513Z,40.80
2023-03-16T03:20:18.371Z,52.77
2023-03-16T03:22:47.200Z,56.27
2023-03-16T03:25:15.744Z,47.33
2023-03-16T03:27:43.176Z,44.07
2023-03-16T03:30:12.790Z,48.93
2023-03-16T03:32:40.127Z,45.60
2023-03-16T03:35:07.553Z,42.83
2023-03-16T03:37:34.584Z,49.57
2023-03-16T03:40:01.029Z,54.47
2023-03-16T03:42:27.590Z,51.63
2023-03-16T03:44:54.069Z,50.10
2023-03-16T03:47:20.835Z,51.90
2023-03-16T03:49:48.174Z,51.43
2023-03-16T03:52:14.740Z,44.63
2023-03-16T03:54:41.258Z,46.80
2023-03-16T03:57:07.781Z,44.93
2023-03-16T03:59:35.026Z,47.43
2023-03-16T04:02:01.672Z,47.17
2023-03-16T04:04:28.228Z,44.33
2023-03-16T04:06:54.772Z,50.90
2023-03-16T04:09:21.300Z,50.83
2023-03-16T04:11:48.221Z,51.03
2023-03-16T04:14:14.756Z,49.87
2023-03-16T04:16:41.309Z,56.40
2023-03-16T04:19:07.788Z,53.70
2023-03-16T04:21:34.353Z,58.43
2023-03-16T04:24:03.869Z,52.67
2023-03-16T04:26:30.725Z,49.57
2023-03-16T04:28:58.236Z,56.67
2023-03-16T04:31:24.849Z,57.00
2023-03-16T04:33:54.559Z,46.17
2023-03-16T04:36:27.132Z,50.13
2023-03-16T04:38:53.601Z,53.87
2023-03-16T04:41:20.110Z,56.67
2023-03-16T04:43:46.877Z,50.87
2023-03-16T04:46:13.443Z,50.13
2023-03-16T04:48:39.958Z,49.07
2023-03-16T04:51:06.736Z,53.27
2023-03-16T04:53:33.499Z,51.80
2023-03-16T04:56:00.172Z,54.67
2023-03-16T04:58:26.790Z,55.50
2023-03-16T05:00:54.163Z,53.87
2023-03-16T05:03:21.655Z,64.27
2023-03-16T05:05:48.483Z,54.57
2023-03-16T05:08:15.347Z,56.30
2023-03-16T05:10:42.152Z,48.47
2023-03-16T05:13:08.656Z,53.40
2023-03-16T05:15:35.812Z,57.63
2023-03-16T05:18:02.355Z,63.13
2023-03-16T05:20:29.081Z,61.77
2023-03-16T05:22:55.725Z,52.77
2023-03-16T05:25:22.278Z,52.50
2023-03-16T05:27:51.370Z,52.33
2023-03-16T05:30:18.785Z,52.63
2023-03-16T05:32:45.807Z,57.03
2023-03-16T05:35:13.874Z,61.67
2023-03-16T05:37:41.527Z,53.13
2023-03-16T05:40:17.415Z,52.57
2023-03-16T05:42:45.429Z,54.13
2023-03-16T05:45:13.804Z,48.43
2023-03-16T05:47:41.826Z,50.63
2023-03-16T05:50:11.277Z,45.40
2023-03-16T05:52:38.544Z,53.77
2023-03-16T05:55:06.538Z,48.10
2023-03-16T05:57:34.142Z,49.33
2023-03-16T06:00:01.956Z,46.80
2023-03-16T06:02:28.951Z,59.47
2023-03-16T06:04:55.554Z,48.07
2023-03-16T06:07:22.087Z,51.80
2023-03-16T06:09:48.678Z,53.50
2023-03-16T06:12:15.246Z,55.27
2023-03-16T06:14:41.792Z,56.60
2023-03-16T06:17:08.393Z,56.40
2023-03-16T06:19:35.158Z,60.03
2023-03-16T06:22:01.878Z,48.43
2023-03-16T06:24:28.465Z,48.27
2023-03-16T06:26:55.206Z,55.27
2023-03-16T06:29:21.772Z,48.13
2023-03-16T06:31:51.317Z,52.50
2023-03-16T06:34:18.630Z,58.57
2023-03-16T06:36:45.138Z,48.20
2023-03-16T06:39:11.889Z,49.67
2023-03-16T06:41:38.692Z,52.33
2023-03-16T06:44:06.193Z,56.40
2023-03-16T06:46:33.143Z,45.90
2023-03-16T06:49:00.991Z,52.43
2023-03-16T06:51:27.992Z,43.47
2023-03-16T06:53:54.640Z,50.27
2023-03-16T06:56:21.591Z,55.80
2023-03-16T06:58:49.475Z,52.40
2023-03-16T07:01:16.230Z,43.80
2023-03-16T07:03:42.905Z,46.27
2023-03-16T07:06:09.631Z,46.37
2023-03-16T07:08:36.538Z,49.30
2023-03-16T07:11:03.443Z,52.10
2023-03-16T07:13:30.176Z,50.27
2023-03-16T07:15:56.869Z,54.87
2023-03-16T07:18:25.877Z,52.27
2023-03-16T07:20:54.146Z,54.50
2023-03-16T07:23:21.296Z,51.10
2023-03-16T07:25:48.800Z,53.93
2023-03-16T07:28:15.488Z,48.93
2023-03-16T07:30:50.502Z,54.47
2023-03-16T07:33:23.430Z,50.37
2023-03-16T07:35:50.068Z,41.33
2023-03-16T07:38:17.241Z,43.33
2023-03-16T07:40:44.189Z,38.90
2023-03-16T07:43:10.774Z,39.77
2023-03-16T07:45:37.331Z,37.97
2023-03-16T07:48:04.097Z,35.33
2023-03-16T07:50:31.089Z,40.43
2023-03-16T07:52:57.962Z,33.57
2023-03-16T07:55:24.585Z,43.13
2023-03-16T07:57:51.359Z,36.90
2023-03-16T08:00:23.882Z,35.47
2023-03-16T08:02:51.841Z,29.37
2023-03-16T08:05:18.558Z,32.70
2023-03-16T08:07:45.207Z,36.93
2023-03-16T08:10:12.042Z,26.07
2023-03-16T08:12:39.132Z,32.07
2023-03-16T08:15:06.471Z,33.27
2023-03-16T08:17:34.368Z,31.47
2023-03-16T08:20:01.546Z,30.73
2023-03-16T08:22:28.279Z,30.80
2023-03-16T08:24:56.503Z,34.37
2023-03-16T08:27:23.375Z,31.27
2023-03-16T08:29:53.412Z,32.63
2023-03-16T08:32:20.474Z,32.70
2023-03-16T08:34:49.022Z,29.63
2023-03-16T08:37:16.453Z,30.63
2023-03-16T08:39:44.293Z,29.40
2023-03-16T08:42:11.076Z,32.30
2023-03-16T08:44:37.645Z,34.23
2023-03-16T08:47:05.308Z,26.23
2023-03-16T08:49:35.168Z,27.30
2023-03-16T08:52:01.810Z,28.87
2023-03-16T08:54:28.501Z,34.77
2023-03-16T08:56:55.399Z,39.60
2023-03-16T08:59:29.837Z,28.37
2023-03-16T09:01:57.857Z,30.83
2023-03-16T09:04:25.356Z,32.27
2023-03-16T09:07:05.883Z,29.00
2023-03-16T09:09:35.802Z,30.17
2023-03-16T09:12:04.344Z,25.10
2023-03-16T09:14:31.239Z,22.77
2023-03-16T09:16:58.498Z,19.03
2023-03-16T09:19:25.210Z,18.13
2023-03-16T09:21:51.904Z,17.43
2023-03-16T09:24:19.303Z,20.23
2023-03-16T09:26:46.016Z,15.17
2023-03-16T09:29:12.990Z,17.57
2023-03-16T09:31:39.532Z,17.90
2023-03-16T09:34:06.276Z,15.47
2023-03-16T09:36:33.894Z,19.60
2023-03-16T09:39:00.615Z,19.67
2023-03-16T09:41:40.154Z,18.77
2023-03-16T09:44:22.872Z,21.30
2023-03-16T09:46:51.122Z,16.97
2023-03-16T09:49:20.964Z,17.57
2023-03-16T09:52:06.416Z,21.63
2023-03-16T09:54:46.401Z,16.03
2023-03-16T09:57:27.897Z,20.67
2023-03-16T09:59:56.989Z,24.10
2023-03-16T10:02:42.098Z,19.63
2023-03-16T10:05:21.680Z,13.80
2023-03-16T10:08:06.652Z,15.10
2023-03-16T10:10:47.190Z,24.53
2023-03-16T10:13:32.002Z,16.77
2023-03-16T10:16:04.107Z,16.33
2023-03-16T10:18:36.294Z,10.07
2023-03-16T10:21:03.410Z,10.97
2023-03-16T10:23:34.312Z,15.03
2023-03-16T10:26:02.907Z,10.70
2023-03-16T10:28:32.127Z,13.47
2023-03-16T10:31:00.518Z,13.53
2023-03-16T10:33:29.938Z,22.80
2023-03-16T10:36:13.066Z,19.60
2023-03-16T10:38:39.699Z,16.20
2023-03-16T10:41:20.257Z,12.07
2023-03-16T10:44:14.853Z,13.27
2023-03-16T10:47:09.189Z,15.07
2023-03-16T10:49:36.893Z,24.90
2023-03-16T10:52:33.472Z,19.30
2023-03-16T10:55:07.366Z,15.73
2023-03-16T10:57:35.657Z,17.67
2023-03-16T11:00:14.973Z,14.90
2023-03-16T11:02:42.411Z,14.97
2023-03-16T11:05:24.568Z,15.93
2023-03-16T11:07:53.839Z,11.37
2023-03-16T11:10:55.948Z,15.77
2023-03-16T11:13:24.833Z,16.20
2023-03-16T11:16:01.903Z,13.93
2023-03-16T11:18:36.090Z,12.37
2023-03-16T11:21:09.403Z,9.87
2023-03-16T11:23:39.445Z,17.93
2023-03-16T11:26:13.369Z,10.77
2023-03-16T11:28:43.924Z,16.40
2023-03-16T11:31:32.795Z,16.33
2023-03-16T11:33:59.614Z,14.20
2023-03-16T11:36:43.285Z,14.13
2023-03-16T11:39:12.899Z,12.40
2023-03-16T11:41:54.492Z,17.87
2023-03-16T11:44:36.762Z,15.70
2023-03-16T11:47:25.922Z,10.53
2023-03-16T11:50:11.347Z,15.20
2023-03-16T11:52:53.270Z,16.77
2023-03-16T11:55:28.766Z,18.67
2023-03-16T11:58:22.538Z,18.67
2023-03-16T12:00:57.545Z,13.10
2023-03-16T12:03:42.699Z,19.47
2023-03-16T12:06:23.970Z,15.90
2023-03-16T12:09:04.633Z,9.70
2023-03-16T12:11:36.743Z,10.83
2023-03-16T12:14:22.750Z,13.20
2023-03-16T12:16:57.214Z,19.33
2023-03-16T12:19:42.606Z,15.07
2023-03-16T12:22:22.841Z,19.50
2023-03-16T12:24:50.346Z,17.17
2023-03-16T12:27:24.068Z,14.47
2023-03-16T12:29:55.830Z,20.63
2023-03-16T12:32:34.828Z,14.03
2023-03-16T12:35:28.365Z,17.87
2023-03-16T12:38:26.033Z,15.63
2023-03-16T12:40:55.325Z,14.90
2023-03-16T12:43:40.912Z,19.00
2023-03-16T12:46:24.521Z,16.73
2023-03-16T12:49:02.646Z,22.27
2023-03-16T12:51:37.780Z,16.50
2023-03-16T12:54:06.167Z,23.47
2023-03-16T12:56:37.427Z,17.20
2023-03-16T12:59:10.278Z,16.23
2023-03-16T13:01:43.706Z,15.87
2023-03-16T13:04:17.221Z,14.97
2023-03-16T13:06:50.990Z,17.50
2023-03-16T13:09:21.773Z,21.00
2023-03-16T13:11:53.202Z,26.93
2023-03-16T13:14:41.892Z,16.63
2023-03-16T13:17:17.459Z,18.27
2023-03-16T13:19:48.259Z,16.77
2023-03-16T13:22:27.085Z,18.00
2023-03-16T13:25:25.578Z,9.23
2023-03-16T13:27:53.658Z,13.50
2023-03-16T13:30:22.844Z,13.77
2023-03-16T13:32:53.997Z,10.00
2023-03-16T13:35:22.532Z,18.50
2023-03-16T13:37:49.524Z,15.93
2023-03-16T13:40:20.396Z,20.13
2023-03-16T13:42:53.306Z,14.77
2023-03-16T13:45:23.222Z,16.10
2023-03-16T13:47:50.722Z,18.00
2023-03-16T13:50:18.800Z,14.63
2023-03-16T13:52:54.280Z,16.97
2023-03-16T13:55:26.500Z,15.70
2023-03-16T13:57:53.138Z,15.53
2023-03-16T14:00:24.886Z,14.40
2023-03-16T14:02:56.843Z,14.23
2023-03-16T14:05:26.120Z,14.07
2023-03-16T14:07:54.310Z,13.93
2023-03-16T14:10:22.575Z,21.87
2023-03-16T14:12:53.142Z,25.53
2023-03-16T14:15:20.400Z,16.93
2023-03-16T14:17:47.184Z,11.47
2023-03-16T14:20:22.407Z,13.80
2023-03-16T14:22:52.353Z,11.87
2023-03-16T14:25:22.715Z,14.23
2023-03-16T14:28:00.045Z,10.37
2023-03-16T14:30:28.909Z,12.37
2023-03-16T14:33:00.881Z,13.93
2023-03-16T14:35:31.199Z,16.13
2023-03-16T14:37:58.409Z,13.63
2023-03-16T14:40:33.194Z,12.33
2023-03-16T14:43:04.423Z,14.77
2023-03-16T14:45:35.835Z,14.17
2023-03-16T14:48:07.402Z,9.43
2023-03-16T14:50:34.767Z,14.73
2023-03-16T14:53:03.793Z,12.83
2023-03-16T14:55:30.631Z,15.37
2023-03-16T14:57:57.479Z,14.23
2023-03-16T15:00:25.398Z,12.23
2023-03-16T15:03:16.133Z,11.90
2023-03-16T15:05:49.142Z,10.17
2023-03-16T15:08:22.836Z,10.33
2023-03-16T15:10:50.041Z,11.27
2023-03-16T15:13:42.456Z,10.10
2023-03-16T15:16:13.935Z,11.03
2023-03-16T15:18:41.887Z,8.57
2023-03-16T15:21:17.478Z,10.07
2023-03-16T15:23:45.155Z,8.63
2023-03-16T15:26:14.493Z,9.83
2023-03-16T15:28:41.182Z,12.60
2023-03-16T15:31:07.878Z,10.20
2023-03-16T15:33:34.421Z,8.23
2023-03-16T15:36:03.390Z,8.90
2023-03-16T15:38:36.202Z,6.70
2023-03-16T15:41:02.977Z,12.57
2023-03-16T15:43:30.631Z,6.53
2023-03-16T15:45:58.927Z,9.70
2023-03-16T15:48:26.180Z,9.03
2023-03-16T15:50:55.504Z,11.83
2023-03-16T15:53:35.886Z,13.93
2023-03-16T15:56:24.830Z,11.47
2023-03-16T15:58:51.452Z,5.83
2023-03-16T16:01:31.901Z,9.30
2023-03-16T16:03:59.296Z,8.07
2023-03-16T16:06:27.653Z,6.23
2023-03-16T16:08:54.371Z,14.40
2023-03-16T16:11:26.343Z,11.57
2023-03-16T16:13:54.795Z,15.53
2023-03-16T16:16:21.344Z,10.13
2023-03-16T16:18:48.717Z,12.27
2023-03-16T16:21:23.069Z,8.40
2023-03-16T16:23:51.428Z,11.20
2023-03-16T16:26:20.647Z,14.17
2023-03-16T16:28:48.342Z,12.00
2023-03-16T16:31:15.044Z,9.93
2023-03-16T16:33:41.647Z,14.73
2023-03-16T16:36:15.027Z,9.93
2023-03-16T16:38:41.773Z,14.13
2023-03-16T16:41:09.245Z,10.20
2023-03-16T16:43:48.598Z,12.37
2023-03-16T16:46:18.630Z,7.63
2023-03-16T16:49:01.853Z,8.53
2023-03-16T16:51:29.845Z,15.47
2023-03-16T16:53:58.117Z,7.77
2023-03-16T16:56:29.545Z,8.83
2023-03-16T16:58:56.879Z,9.23
2023-03-16T17:01:27.783Z,11.90
2023-03-16T17:03:54.298Z,11.10
2023-03-16T17:06:21.187Z,16.33
2023-03-16T17:08:50.037Z,16.07
2023-03-16T17:11:25.568Z,18.13
2023-03-16T17:13:53.949Z,19.13
2023-03-16T17:16:22.705Z,19.47
2023-03-16T17:18:52.987Z,12.07
2023-03-16T17:21:23.705Z,14.23
2023-03-16T17:23:52.668Z,18.37
2023-03-16T17:26:21.888Z,14.30
2023-03-16T17:28:52.090Z,20.70
2023-03-16T17:31:27.185Z,19.53
2023-03-16T17:33:54.747Z,29.57
2023-03-16T17:36:21.682Z,31.53
2023-03-16T17:38:48.602Z,15.23
2023-03-16T17:41:26.794Z,18.47
2023-03-16T17:43:55.238Z,20.57
2023-03-16T17:46:25.045Z,21.60
2023-03-16T17:48:53.045Z,15.27
2023-03-16T17:51:21.188Z,19.63
2023-03-16T17:53:48.744Z,20.67
2023-03-16T17:56:20.698Z,17.83
2023-03-16T17:58:53.495Z,25.83
2023-03-16T18:01:22.329Z,17.07
2023-03-16T18:03:48.983Z,17.47
2023-03-16T18:06:19.703Z,15.33
2023-03-16T18:08:48.534Z,16.80
2023-03-16T18:11:36.107Z,16.67
2023-03-16T18:14:04.807Z,18.60
2023-03-16T18:16:31.399Z,17.90
2023-03-16T18:19:00.652Z,26.10
2023-03-16T18:21:28.037Z,33.90
2023-03-16T18:23:54.560Z,33.23
2023-03-16T18:26:22.156Z,28.60
2023-03-16T18:28:48.775Z,24.03
2023-03-16T18:31:26.982Z,25.73
2023-03-16T18:33:56.369Z,30.97
2023-03-16T18:36:32.823Z,41.57
2023-03-16T18:39:01.632Z,54.90
2023-03-16T18:41:33.738Z,47.40
2023-03-16T18:44:06.083Z,48.97
2023-03-16T18:46:34.612Z,67.97
2023-03-16T18:49:12.496Z,64.27
2023-03-16T18:51:39.430Z,49.03
2023-03-16T18:54:28.371Z,71.33
2023-03-16T18:56:55.119Z,76.97
2023-03-16T18:59:21.752Z,68.07
2023-03-16T19:01:48.870Z,69.33
2023-03-16T19:04:35.689Z,65.77
2023-03-16T19:07:02.461Z,59.13
2023-03-16T19:09:31.138Z,57.03
2023-03-16T19:11:58.617Z,56.70
2023-03-16T19:14:31.453Z,70.67
2023-03-16T19:16:58.020Z,46.23
2023-03-16T19:19:24.867Z,52.70
2023-03-16T19:21:53.791Z,47.53
2023-03-16T19:24:29.242Z,41.60
2023-03-16T19:26:56.590Z,42.70
2023-03-16T19:29:28.331Z,50.57
2023-03-16T19:31:56.837Z,64.40
2023-03-16T19:34:23.396Z,61.33
2023-03-16T19:36:50.043Z,51.67
2023-03-16T19:39:17.257Z,50.77
2023-03-16T19:41:47.121Z,53.07
2023-03-16T19:44:20.210Z,48.40
2023-03-16T19:46:49.939Z,43.00
2023-03-16T19:49:23.893Z,48.57
2023-03-16T19:51:52.683Z,40.50
2023-03-16T19:54:32.493Z,44.33
2023-03-16T19:57:04.014Z,41.00
2023-03-16T19:59:33.213Z,41.80
2023-03-16T20:02:00.926Z,39.47
2023-03-16T20:04:28.022Z,41.13
2023-03-16T20:06:54.716Z,46.83
2023-03-16T20:09:22.498Z,37.70
2023-03-16T20:11:49.632Z,31.60
2023-03-16T20:14:33.159Z,37.83
2023-03-16T20:17:00.148Z,39.17
2023-03-16T20:19:26.828Z,38.53
2023-03-16T20:21:53.402Z,39.67
2023-03-16T20:24:20.879Z,31.70
2023-03-16T20:26:49.370Z,37.63
2023-03-16T20:29:28.164Z,40.70
2023-03-16T20:31:54.932Z,36.83
2023-03-16T20:34:26.632Z,35.33
2023-03-16T20:36:53.571Z,37.13
2023-03-16T20:39:20.238Z,33.80
2023-03-16T20:41:48.670Z,35.23
2023-03-16T20:44:18.010Z,31.87
2023-03-16T20:46:45.214Z,33.40
2023-03-16T20:49:25.225Z,45.03
2023-03-16T20:51:52.210Z,45.87
2023-03-16T20:54:19.126Z,36.10
2023-03-16T20:56:45.722Z,43.37
2023-03-16T20:59:28.329Z,41.27
2023-03-16T21:01:55.688Z,32.97
2023-03-16T21:04:25.713Z,33.83
2023-03-16T21:06:52.443Z,43.43
2023-03-16T21:09:19.902Z,38.57
2023-03-16T21:11:47.169Z,37.10
2023-03-16T21:14:31.483Z,43.33
2023-03-16T21:16:57.913Z,41.63
2023-03-16T21:19:24.740Z,43.87
2023-03-16T21:21:51.560Z,59.10
2023-03-16T21:24:18.059Z,50.50
2023-03-16T21:26:45.077Z,47.83
2023-03-16T21:29:16.025Z,54.23
2023-03-16T21:31:42.729Z,45.90
2023-03-16T21:34:22.802Z,40.50
2023-03-16T21:36:49.270Z,46.27
2023-03-16T21:39:19.610Z,46.73
2023-03-16T21:41:48.030Z,40.57
2023-03-16T21:44:14.489Z,55.07
2023-03-16T21:46:41.004Z,57.77
2023-03-16T21:49:10.980Z,64.53
2023-03-16T21:51:37.607Z,48.70
2023-03-16T21:54:07.837Z,56.60
2023-03-16T21:56:36.055Z,55.23
2023-03-16T21:59:02.591Z,54.00
2023-03-16T22:01:31.426Z,63.83
2023-03-16T22:04:02.661Z,46.47
2023-03-16T22:06:29.536Z,65.70
2023-03-16T22:08:57.774Z,51.30
2023-03-16T22:11:28.184Z,49.43
2023-03-16T22:13:55.980Z,51.57
2023-03-16T22:16:24.390Z,46.40
2023-03-16T22:18:52.833Z,63.60
2023-03-16T22:21:27.496Z,54.07
2023-03-16T22:23:54.426Z,54.77
2023-03-16T22:26:22.530Z,60.27
2023-03-16T22:28:50.756Z,56.00
2023-03-16T22:31:30.128Z,75.37
2023-03-16T22:33:56.652Z,77.30
2023-03-16T22:36:23.605Z,66.23
2023-03-16T22:38:59.639Z,69.67
2023-03-16T22:41:26.188Z,75.43
2023-03-16T22:43:52.754Z,71.27
2023-03-16T22:46:21.974Z,63.57
2023-03-16T22:48:48.512Z,59.40
2023-03-16T22:51:23.048Z,66.13
2023-03-16T22:53:50.995Z,62.30
2023-03-16T22:56:18.559Z,54.37
2023-03-16T22:58:51.031Z,70.00
2023-03-16T23:01:23.235Z,73.73
2023-03-16T23:03:51.300Z,74.80
2023-03-16T23:06:28.953Z,72.37
2023-03-16T23:08:56.176Z,72.07
2023-03-16T23:11:23.815Z,70.07
2023-03-16T23:13:53.507Z,67.63
2023-03-16T23:16:25.516Z,57.67
2023-03-16T23:18:52.464Z,65.07
2023-03-16T23:21:21.392Z,60.30
2023-03-16T23:24:02.624Z,64.50
2023-03-16T23:26:30.556Z,60.43
2023-03-16T23:28:57.606Z,61.93
2023-03-16T23:31:25.858Z,67.70
2023-03-16T23:33:52.288Z,76.50
2023-03-16T23:36:20.983Z,67.00
2023-03-16T23:38:49.199Z,64.40
2023-03-16T23:41:18.897Z,63.10
2023-03-16T23:43:45.949Z,71.73
2023-03-16T23:46:14.481Z,64.97
2023-03-16T23:48:42.899Z,66.77
2023-03-16T23:51:21.302Z,72.63
2023-03-16T23:53:49.115Z,66.60
2023-03-16T23:56:15.635Z,66.37
2023-03-16T23:58:42.248Z,69.00
